Trout Dale, Virginia
Current Conditions -  °F | °C
As of 11:35 AM on Saturday 22 Nov 2014 (Local Time) from KMKJ Reporting Station
Clear Clear  
Wind Chill: 46°   Ceiling: Unl
Heat Index: 46°   Visibility: 10mi
Dew Point: 17°   Wind: 3mph
Humidity: 32%   Direction: 70°ENE
Pressure: 30.41"   Gusts: NA
Location:  36.7°N, 81.44°W
Report Text: KMKJ 221635Z AUTO 07003KT 10SM CLR 08/M08 A3041 RMK AO2 T00751085
Loading
Personal Weather Stations






























Interactive Weather Map New forecast layout! Learn more

10-Day Weather Forecast

Advertisements
Track Severe Weather on mobile